Time;durP1;ratioP1;P1;durP2;ratioP2;P2;SDS_P1;SDS_P2;PMS_P1;PMS_P2;Temp;Humidity;BMP_temperature;BMP_pressure;BME280_temperature;BME280_humidity;BME280_pressure;Samples;Min_cycle;Max_cycle;Signal;HPM_P1;HPM_P2
2021/03/11 00:03:11;;;;;;;52.80;28.43;;;;;;;-4.71;56.60;99805.61;509328;1102;100332;-65
2021/03/11 00:13:14;;;;;;;45.10;24.83;;;;;;;-4.73;57.87;99797.08;509140;1102;115934;-63
2021/03/11 00:23:21;;;;;;;45.17;26.60;;;;;;;-4.80;57.71;99803.89;509163;1102;114229;-69
2021/03/11 00:33:25;;;;;;;48.87;26.07;;;;;;;-4.96;57.83;99808.98;508871;1102;114742;-62
2021/03/11 00:43:28;;;;;;;47.03;26.10;;;;;;;-5.09;58.02;99814.89;509215;1102;114525;-64
2021/03/11 00:53:31;;;;;;;45.13;25.97;;;;;;;-5.18;58.43;99818.28;509118;1102;115332;-66
2021/03/11 01:03:37;;;;;;;46.53;26.40;;;;;;;-5.24;59.65;99797.80;509036;1102;114651;-65
2021/03/11 01:13:42;;;;;;;41.55;24.10;;;;;;;-5.25;59.78;99799.48;508899;1102;114284;-66
2021/03/11 01:23:45;;;;;;;44.60;25.33;;;;;;;-5.35;59.97;99767.89;508732;1102;114589;-66
2021/03/11 01:33:48;;;;;;;42.97;24.07;;;;;;;-5.36;59.97;99765.31;509047;1102;114689;-66
2021/03/11 01:43:54;;;;;;;34.23;21.47;;;;;;;-5.43;59.19;99731.16;509134;1102;114276;-65
2021/03/11 01:54:01;;;;;;;;;;;;;;;-5.40;60.07;99714.97;509228;1102;114701;-65
2021/03/11 02:04:08;;;;;;;36.37;21.57;;;;;;;-5.41;59.24;99695.34;509229;1101;101495;-65
2021/03/11 02:14:19;;;;;;;36.13;20.13;;;;;;;-5.40;60.10;99677.41;509217;1102;114275;-66
2021/03/11 02:24:35;;;;;;;31.30;20.07;;;;;;;-5.42;59.10;99663.77;509063;1102;114708;-67
2021/03/11 02:34:41;;;;;;;29.57;17.80;;;;;;;-5.49;59.25;99644.98;509311;1102;114685;-66
2021/03/11 02:44:45;;;;;;;30.73;18.50;;;;;;;-5.62;59.44;99654.31;509041;1101;114412;-67
2021/03/11 02:54:50;;;;;;;28.87;15.43;;;;;;;-5.69;59.59;99660.28;509198;1102;114309;-65
2021/03/11 03:04:58;;;;;;;31.20;17.17;;;;;;;-5.70;59.65;99662.83;509052;1102;114304;-66
2021/03/11 03:15:02;;;;;;;24.43;15.53;;;;;;;-5.60;59.36;99650.91;509051;1102;114638;-66
2021/03/11 03:25:09;;;;;;;31.70;18.40;;;;;;;-5.55;59.78;99644.12;509318;1102;114808;-66
2021/03/11 03:35:15;;;;;;;28.57;18.77;;;;;;;-5.59;59.54;99627.06;508988;1102;115072;-66
2021/03/11 03:45:24;;;;;;;26.80;16.07;;;;;;;-5.64;60.13;99602.30;509146;1102;114269;-66
2021/03/11 03:55:30;;;;;;;27.23;15.73;;;;;;;-5.69;59.73;99613.37;509224;1102;114257;-66
2021/03/11 04:05:33;;;;;;;23.73;15.25;;;;;;;-5.69;59.73;99591.21;509201;1102;114192;-66
2021/03/11 04:15:40;;;;;;;30.47;16.03;;;;;;;-5.69;60.13;99578.42;509297;1100;114458;-66
2021/03/11 04:25:44;;;;;;;23.70;15.37;;;;;;;-5.71;60.11;99571.59;509226;1102;114372;-67
2021/03/11 04:35:47;;;;;;;27.43;16.23;;;;;;;-5.69;60.11;99560.52;509174;1102;114269;-67
2021/03/11 04:45:51;;;;;;;24.17;14.03;;;;;;;-5.61;59.66;99545.17;509290;1102;114378;-67
2021/03/11 04:55:55;;;;;;;25.47;14.97;;;;;;;-5.45;59.90;99542.61;509194;1102;114393;-66
2021/03/11 05:05:58;;;;;;;24.37;14.40;;;;;;;-5.23;59.20;99536.64;508983;1102;114482;-66
2021/03/11 05:16:02;;;;;;;32.57;14.17;;;;;;;-4.95;58.65;99521.27;509038;1102;114372;-66
2021/03/11 05:26:06;;;;;;;20.53;13.30;;;;;;;-4.48;57.86;99484.39;509391;1101;114368;-66
2021/03/11 05:36:12;;;;;;;21.80;13.47;;;;;;;-3.70;57.40;99454.85;509219;1102;114386;-66
2021/03/11 05:46:17;;;;;;;23.73;12.97;;;;;;;-3.11;55.54;99435.50;508994;1102;114433;-64
2021/03/11 05:56:21;;;;;;;16.67;12.03;;;;;;;-2.26;54.57;99420.75;508917;1101;114207;-68
2021/03/11 06:06:31;;;;;;;17.17;12.20;;;;;;;-0.90;52.46;99403.88;509273;1102;114584;-67
2021/03/11 06:16:37;;;;;;;24.23;15.30;;;;;;;1.06;49.76;99383.73;508791;1102;116132;-67
2021/03/11 06:26:41;;;;;;;25.37;14.18;;;;;;;2.13;48.40;99388.25;509256;1102;113942;-66
2021/03/11 06:36:47;;;;;;;23.90;14.47;;;;;;;2.44;45.75;99379.47;509071;1102;113986;-65
2021/03/11 06:46:59;;;;;;;18.92;11.85;;;;;;;2.00;44.70;99348.97;509108;1102;113937;-67
2021/03/11 06:57:06;;;;;;;19.43;12.40;;;;;;;1.64;44.63;99341.48;509221;1102;113956;-65
2021/03/11 07:07:20;;;;;;;15.90;11.33;;;;;;;1.86;44.58;99352.00;509174;1102;114689;-64
2021/03/11 07:17:26;;;;;;;19.50;13.73;;;;;;;1.67;43.68;99325.85;508260;1102;113973;-68
2021/03/11 07:27:40;;;;;;;20.10;13.73;;;;;;;1.61;43.38;99321.72;511479;1102;114067;-68
2021/03/11 07:37:51;;;;;;;19.57;13.80;;;;;;;2.40;42.79;99317.42;509132;1102;113943;-66
2021/03/11 07:47:56;;;;;;;22.50;15.70;;;;;;;4.14;42.02;99288.31;509268;1102;113981;-65
2021/03/11 07:58:03;;;;;;;19.30;14.93;;;;;;;5.41;39.36;99258.34;509198;1102;113934;-66
2021/03/11 08:08:15;;;;;;;20.15;14.45;;;;;;;5.09;38.01;99219.10;509356;1102;114223;-64
2021/03/11 08:18:45;;;;;;;23.55;14.30;;;;;;;4.41;38.08;99209.20;509243;1100;115179;-64
2021/03/11 08:28:55;;;;;;;19.90;14.90;;;;;;;4.02;38.95;99193.52;509069;1102;114368;-64
2021/03/11 08:38:58;;;;;;;20.87;15.37;;;;;;;4.02;38.11;99161.52;509065;1102;113915;-64
2021/03/11 08:49:02;;;;;;;22.40;16.00;;;;;;;3.81;37.84;99151.14;509229;1102;113860;-64
2021/03/11 08:59:07;;;;;;;22.60;13.90;;;;;;;3.27;38.30;99123.09;509416;1102;113892;-64
2021/03/11 09:09:16;;;;;;;20.40;15.03;;;;;;;2.71;38.39;99101.98;509141;1102;113980;-65
2021/03/11 09:19:20;;;;;;;22.90;15.93;;;;;;;2.06;39.01;99076.80;509101;1102;115167;-64
2021/03/11 09:29:23;;;;;;;22.07;15.77;;;;;;;1.84;39.63;99058.64;509515;1102;114412;-62
2021/03/11 09:39:26;;;;;;;21.90;14.17;;;;;;;1.78;40.62;99020.88;509116;1102;113963;-64
2021/03/11 09:49:31;;;;;;;23.50;15.50;;;;;;;1.74;41.33;99008.10;509112;1102;114291;-62
2021/03/11 09:59:35;;;;;;;21.13;14.37;;;;;;;1.79;40.90;98988.05;509152;1102;114106;-64
2021/03/11 10:09:40;;;;;;;24.83;16.23;;;;;;;1.82;41.34;98967.24;509465;1100;114729;-63
2021/03/11 10:19:43;;;;;;;24.87;16.17;;;;;;;1.85;42.46;98961.08;511085;1102;113858;-63
2021/03/11 10:29:47;;;;;;;24.43;15.17;;;;;;;2.02;41.84;98952.66;510722;1102;114273;-64
2021/03/11 10:39:55;;;;;;;26.87;19.23;;;;;;;1.95;42.80;98937.38;510994;1101;113842;-63
2021/03/11 10:50:00;;;;;;;27.30;18.30;;;;;;;1.99;42.36;98917.39;511077;1102;113946;-64
2021/03/11 11:00:08;;;;;;;27.10;19.40;;;;;;;1.99;43.10;98908.77;510730;1102;114339;-62
2021/03/11 11:10:14;;;;;;;26.83;18.30;;;;;;;2.13;42.67;98887.51;510989;1102;113930;-63
2021/03/11 11:20:19;;;;;;;24.87;16.50;;;;;;;2.16;43.15;98857.14;511132;1102;114327;-63
2021/03/11 11:30:24;;;;;;;29.13;16.87;;;;;;;2.01;43.28;98821.50;511104;1102;114012;-63
2021/03/11 11:40:28;;;;;;;25.30;17.87;;;;;;;1.84;45.90;98806.66;510922;1102;114194;-64
2021/03/11 11:50:31;;;;;;;28.07;16.43;;;;;;;1.47;48.50;98789.12;510731;1101;113974;-65
2021/03/11 12:00:37;;;;;;;27.75;19.75;;;;;;;1.14;53.51;98776.59;510995;1102;114166;-65
2021/03/11 12:10:41;;;;;;;;;;;;;;;0.81;55.88;98757.14;510823;1102;113991;-64
2021/03/11 12:20:45;;;;;;;28.37;19.93;;;;;;;0.86;58.64;98730.27;511001;1101;99797;-65
2021/03/11 12:30:48;;;;;;;29.25;19.75;;;;;;;0.99;58.33;98695.31;511151;1102;114640;-66
2021/03/11 12:40:55;;;;;;;27.90;19.10;;;;;;;1.19;58.66;98654.88;511286;1102;114696;-67
2021/03/11 12:50:59;;;;;;;33.83;21.02;;;;;;;1.07;60.53;98641.53;511207;1102;114314;-62
2021/03/11 13:01:05;;;;;;;33.17;19.10;;;;;;;0.93;61.95;98625.75;511091;1102;113968;-61
2021/03/11 13:11:09;;;;;;;30.07;19.20;;;;;;;0.68;63.18;98600.88;510944;1101;114403;-64
2021/03/11 13:21:17;;;;;;;35.37;22.33;;;;;;;0.47;64.47;98579.32;511165;1102;114068;-58
2021/03/11 13:31:21;;;;;;;27.83;19.20;;;;;;;0.32;65.61;98549.77;511045;1101;113967;-60
2021/03/11 13:41:26;;;;;;;33.17;22.03;;;;;;;0.15;67.00;98522.83;511184;1102;114443;-59
2021/03/11 13:51:32;;;;;;;33.13;19.90;;;;;;;0.02;67.37;98522.48;511117;1102;113954;-58
2021/03/11 14:01:39;;;;;;;31.10;21.20;;;;;;;-0.03;68.30;98496.84;510810;1102;114563;-60
2021/03/11 14:11:47;;;;;;;36.33;21.53;;;;;;;-0.04;69.43;98465.92;511056;1102;114120;-61
2021/03/11 14:21:49;;;;;;;;;;;;;;;0.00;70.08;98433.95;510984;1102;114215;-59
2021/03/11 14:31:55;;;;;;;30.53;22.07;;;;;;;-0.03;70.47;98418.56;511240;1102;99789;-60
2021/03/11 14:42:01;;;;;;;33.87;21.83;;;;;;;-0.05;70.08;98423.80;510636;1102;114880;-69
2021/03/11 14:52:06;;;;;;;34.97;22.57;;;;;;;-0.01;72.02;98409.86;510901;1102;114823;-62
2021/03/11 15:02:10;;;;;;;33.97;23.70;;;;;;;-0.05;71.14;98394.56;511087;1102;114136;-60
2021/03/11 15:12:15;;;;;;;36.35;24.05;;;;;;;-0.09;72.30;98374.95;510993;1101;114135;-60
2021/03/11 15:22:19;;;;;;;42.13;25.13;;;;;;;-0.20;73.16;98350.41;510994;1101;114121;-60
2021/03/11 15:32:23;;;;;;;35.40;23.80;;;;;;;-0.25;73.57;98333.44;510848;1102;114093;-67
2021/03/11 15:42:40;;;;;;;38.10;25.37;;;;;;;-0.29;74.29;98294.02;511012;1102;115224;-66
2021/03/11 15:52:47;;;;;;;40.10;25.47;;;;;;;-0.29;74.28;98288.86;510850;1102;114455;-63
2021/03/11 16:02:54;;;;;;;41.20;24.00;;;;;;;-0.25;75.10;98253.46;510979;1102;114299;-69
2021/03/11 16:13:05;;;;;;;36.27;24.07;;;;;;;-0.19;74.36;98250.61;511317;1101;115075;-65
2021/03/11 16:23:10;;;;;;;35.05;23.35;;;;;;;-0.12;74.95;98215.91;510952;1102;114037;-65
2021/03/11 16:33:15;;;;;;;35.45;23.87;;;;;;;-0.02;75.02;98201.72;502241;1102;10001801;-62
2021/03/11 16:43:28;;;;;;;46.27;27.90;;;;;;;0.08;75.25;98188.42;510248;1102;114505;-62
2021/03/11 16:53:33;;;;;;;46.27;27.80;;;;;;;0.15;75.90;98173.50;510164;1101;114639;-62
2021/03/11 17:03:40;;;;;;;46.17;30.97;;;;;;;0.16;76.86;98168.25;510236;1101;113920;-60
2021/03/11 17:13:53;;;;;;;38.47;25.37;;;;;;;0.23;75.62;98148.16;510152;1101;113987;-60
2021/03/11 17:24:02;;;;;;;39.33;25.12;;;;;;;0.28;77.46;98131.55;510688;1102;114378;-61
2021/03/11 17:34:06;;;;;;;34.60;24.33;;;;;;;0.31;76.36;98138.33;510561;1102;113969;-59
2021/03/11 17:44:18;;;;;;;33.60;24.85;;;;;;;0.38;77.59;98108.75;510560;1102;115041;-59
2021/03/11 17:54:21;;;;;;;43.30;28.57;;;;;;;0.47;77.12;98080.83;510492;1102;114372;-60
2021/03/11 18:04:26;;;;;;;35.27;24.43;;;;;;;0.56;77.29;98077.79;512645;1102;114266;-68
2021/03/11 18:14:36;;;;;;;36.13;26.67;;;;;;;0.66;77.72;98047.20;511074;1102;114013;-69
2021/03/11 18:24:41;;;;;;;34.00;24.00;;;;;;;0.75;77.71;98031.27;511175;1102;113988;-66
2021/03/11 18:34:44;;;;;;;35.90;24.00;;;;;;;0.86;77.67;98016.95;511262;1102;114300;-73
2021/03/11 18:44:58;;;;;;;40.17;24.73;;;;;;;0.92;76.90;97996.80;511040;1102;114734;-68
2021/03/11 18:55:09;;;;;;;29.80;20.93;;;;;;;1.00;77.10;98001.61;511089;1102;114010;-69
2021/03/11 19:05:14;;;;;;;33.07;22.60;;;;;;;1.05;78.52;97986.69;511003;1102;113966;-69
2021/03/11 19:15:23;;;;;;;32.35;22.80;;;;;;;1.15;77.92;98019.84;501964;1102;10001303;-67
2021/03/11 19:25:29;;;;;;;38.25;25.65;;;;;;;1.26;78.06;98014.95;510480;1102;114827;-67
2021/03/11 19:35:34;;;;;;;37.60;24.63;;;;;;;1.33;78.37;98016.33;510477;1102;114149;-64
2021/03/11 19:45:43;;;;;;;42.83;25.60;;;;;;;1.40;78.60;97980.63;510479;1102;113935;-64
2021/03/11 19:55:49;;;;;;;42.37;27.90;;;;;;;1.47;78.46;97968.20;510203;1102;113943;-64
2021/03/11 20:05:52;;;;;;;46.77;28.70;;;;;;;1.38;78.43;97959.16;511336;1102;114415;-65
2021/03/11 20:16:11;;;;;;;46.13;26.93;;;;;;;1.29;79.06;97944.97;510445;1101;114284;-61
2021/03/11 20:26:15;;;;;;;40.95;25.05;;;;;;;1.01;78.63;97930.91;510482;1102;113950;-64
2021/03/11 20:36:18;;;;;;;36.10;23.45;;;;;;;0.85;79.88;97930.85;510529;1102;114581;-64
2021/03/11 20:46:38;;;;;;;33.07;21.23;;;;;;;0.88;79.92;97907.42;510170;1102;114614;-71
2021/03/11 20:56:43;;;;;;;35.27;21.57;;;;;;;1.00;79.88;97913.73;512182;1102;114588;-64
2021/03/11 21:06:50;;;;;;;31.27;19.07;;;;;;;1.12;79.88;97904.48;510474;1101;113928;-64
2021/03/11 21:17:07;;;;;;;27.70;19.10;;;;;;;1.19;79.57;97887.73;509993;1102;113953;-64
2021/03/11 21:27:12;;;;;;;30.40;19.77;;;;;;;1.19;79.89;97861.88;509807;1102;114475;-63
2021/03/11 21:37:15;;;;;;;28.50;18.93;;;;;;;1.11;79.30;97861.45;510702;1102;114222;-64
2021/03/11 21:47:30;;;;;;;28.90;18.70;;;;;;;1.08;79.91;97867.61;509535;1101;113942;-63
2021/03/11 21:57:34;;;;;;;31.17;18.70;;;;;;;1.32;80.26;97859.45;510188;1102;114711;-63
2021/03/11 22:07:37;;;;;;;29.13;18.50;;;;;;;1.52;80.43;97836.84;510215;1102;114528;-71
2021/03/11 22:17:50;;;;;;;27.70;18.20;;;;;;;1.62;79.69;97839.78;511631;1102;114473;-75
2021/03/11 22:27:57;;;;;;;30.17;19.40;;;;;;;1.78;80.42;97834.55;512202;1102;113928;-74
2021/03/11 22:38:00;;;;;;;26.15;18.25;;;;;;;2.00;79.69;97820.39;512296;1101;114582;-75
2021/03/11 22:48:17;;;;;;;29.60;18.87;;;;;;;2.06;79.53;97825.23;512823;1102;114713;-75
2021/03/11 22:58:20;;;;;;;29.47;19.30;;;;;;;2.18;79.62;97827.11;512799;1102;114646;-74
2021/03/11 23:08:27;;;;;;;28.77;19.40;;;;;;;2.38;79.25;97857.02;512640;1100;113917;-75
2021/03/11 23:18:36;;;;;;;20.23;15.73;;;;;;;2.56;78.97;97875.02;512586;1102;114305;-75
2021/03/11 23:28:46;;;;;;;25.83;16.27;;;;;;;2.66;78.89;97857.16;512403;1102;113917;-77
2021/03/11 23:38:49;;;;;;;27.50;17.73;;;;;;;2.60;78.60;97878.27;512267;1102;114564;-76
2021/03/11 23:48:58;;;;;;;23.70;16.80;;;;;;;2.25;78.56;97871.62;512365;1102;113848;-75
2021/03/11 23:59:01;;;;;;;27.00;17.95;;;;;;;1.97;78.99;97868.03;512202;1102;114392;-75
